sensor_id;sensor_type;location;lat;lon;timestamp;P1;durP1;ratioP1;P2;durP2;ratioP2
17228;SDS011;8731;50.364;8.958;2023-05-23T00:01:24;19.30;;;17.33;;
17228;SDS011;8731;50.364;8.958;2023-05-23T00:05:46;19.43;;;17.47;;
17228;SDS011;8731;50.364;8.958;2023-05-23T00:10:12;19.13;;;17.23;;
17228;SDS011;8731;50.364;8.958;2023-05-23T00:14:34;18.27;;;16.17;;
17228;SDS011;8731;50.364;8.958;2023-05-23T00:18:59;17.53;;;15.93;;
17228;SDS011;8731;50.364;8.958;2023-05-23T00:23:25;18.70;;;16.93;;
17228;SDS011;8731;50.364;8.958;2023-05-23T00:27:50;17.63;;;15.90;;
17228;SDS011;8731;50.364;8.958;2023-05-23T00:32:12;17.30;;;15.50;;
17228;SDS011;8731;50.364;8.958;2023-05-23T00:36:35;17.20;;;15.50;;
17228;SDS011;8731;50.364;8.958;2023-05-23T00:40:57;16.20;;;14.70;;
17228;SDS011;8731;50.364;8.958;2023-05-23T00:45:21;15.43;;;13.93;;
17228;SDS011;8731;50.364;8.958;2023-05-23T00:49:44;16.47;;;14.73;;
17228;SDS011;8731;50.364;8.958;2023-05-23T00:54:06;17.60;;;15.27;;
17228;SDS011;8731;50.364;8.958;2023-05-23T00:58:29;16.50;;;14.93;;
17228;SDS011;8731;50.364;8.958;2023-05-23T01:02:53;16.70;;;14.67;;
17228;SDS011;8731;50.364;8.958;2023-05-23T01:07:16;17.50;;;15.90;;
17228;SDS011;8731;50.364;8.958;2023-05-23T01:11:40;17.17;;;15.50;;
17228;SDS011;8731;50.364;8.958;2023-05-23T01:16:23;18.20;;;16.20;;
17228;SDS011;8731;50.364;8.958;2023-05-23T01:20:58;18.53;;;16.70;;
17228;SDS011;8731;50.364;8.958;2023-05-23T01:25:27;19.07;;;17.00;;
17228;SDS011;8731;50.364;8.958;2023-05-23T01:30:22;17.47;;;15.60;;
17228;SDS011;8731;50.364;8.958;2023-05-23T01:34:47;18.77;;;16.87;;
17228;SDS011;8731;50.364;8.958;2023-05-23T01:39:13;19.40;;;17.50;;
17228;SDS011;8731;50.364;8.958;2023-05-23T01:43:35;18.00;;;16.33;;
17228;SDS011;8731;50.364;8.958;2023-05-23T01:48:00;18.33;;;16.53;;
17228;SDS011;8731;50.364;8.958;2023-05-23T01:52:25;19.83;;;17.13;;
17228;SDS011;8731;50.364;8.958;2023-05-23T01:56:47;20.47;;;18.17;;
17228;SDS011;8731;50.364;8.958;2023-05-23T02:01:13;20.17;;;18.17;;
17228;SDS011;8731;50.364;8.958;2023-05-23T02:05:37;22.97;;;19.07;;
17228;SDS011;8731;50.364;8.958;2023-05-23T02:10:00;22.17;;;19.87;;
17228;SDS011;8731;50.364;8.958;2023-05-23T02:14:25;21.53;;;19.33;;
17228;SDS011;8731;50.364;8.958;2023-05-23T02:18:48;21.87;;;19.70;;
17228;SDS011;8731;50.364;8.958;2023-05-23T02:23:13;21.20;;;19.07;;
17228;SDS011;8731;50.364;8.958;2023-05-23T02:27:36;21.73;;;19.40;;
17228;SDS011;8731;50.364;8.958;2023-05-23T02:31:58;20.03;;;18.13;;
17228;SDS011;8731;50.364;8.958;2023-05-23T02:36:21;20.83;;;18.93;;
17228;SDS011;8731;50.364;8.958;2023-05-23T02:40:45;20.13;;;18.10;;
17228;SDS011;8731;50.364;8.958;2023-05-23T02:45:11;19.87;;;17.87;;
17228;SDS011;8731;50.364;8.958;2023-05-23T02:49:33;18.53;;;16.73;;
17228;SDS011;8731;50.364;8.958;2023-05-23T02:53:55;18.87;;;17.20;;
17228;SDS011;8731;50.364;8.958;2023-05-23T02:58:19;19.27;;;17.37;;
17228;SDS011;8731;50.364;8.958;2023-05-23T03:02:43;19.70;;;17.57;;
17228;SDS011;8731;50.364;8.958;2023-05-23T03:07:05;19.17;;;17.23;;
17228;SDS011;8731;50.364;8.958;2023-05-23T03:11:31;18.77;;;17.07;;
17228;SDS011;8731;50.364;8.958;2023-05-23T03:15:56;18.83;;;16.53;;
17228;SDS011;8731;50.364;8.958;2023-05-23T03:20:19;17.87;;;15.97;;
17228;SDS011;8731;50.364;8.958;2023-05-23T03:24:42;17.07;;;15.47;;
17228;SDS011;8731;50.364;8.958;2023-05-23T03:29:05;15.60;;;14.10;;
17228;SDS011;8731;50.364;8.958;2023-05-23T03:33:31;15.27;;;13.60;;
17228;SDS011;8731;50.364;8.958;2023-05-23T03:37:54;16.70;;;13.87;;
17228;SDS011;8731;50.364;8.958;2023-05-23T03:42:17;14.57;;;13.13;;
17228;SDS011;8731;50.364;8.958;2023-05-23T03:46:39;13.13;;;12.00;;
17228;SDS011;8731;50.364;8.958;2023-05-23T03:51:03;15.10;;;13.47;;
17228;SDS011;8731;50.364;8.958;2023-05-23T03:55:26;13.40;;;12.00;;
17228;SDS011;8731;50.364;8.958;2023-05-23T03:59:53;13.27;;;12.07;;
17228;SDS011;8731;50.364;8.958;2023-05-23T04:04:17;13.60;;;12.23;;
17228;SDS011;8731;50.364;8.958;2023-05-23T04:08:41;13.77;;;12.37;;
17228;SDS011;8731;50.364;8.958;2023-05-23T04:13:05;13.23;;;11.97;;
17228;SDS011;8731;50.364;8.958;2023-05-23T04:17:28;13.37;;;11.97;;
17228;SDS011;8731;50.364;8.958;2023-05-23T04:21:51;12.10;;;10.80;;
17228;SDS011;8731;50.364;8.958;2023-05-23T04:26:15;12.47;;;11.27;;
17228;SDS011;8731;50.364;8.958;2023-05-23T04:30:42;12.50;;;11.00;;
17228;SDS011;8731;50.364;8.958;2023-05-23T04:35:07;13.43;;;12.13;;
17228;SDS011;8731;50.364;8.958;2023-05-23T04:39:34;12.33;;;11.23;;
17228;SDS011;8731;50.364;8.958;2023-05-23T04:44:24;11.97;;;10.87;;
17228;SDS011;8731;50.364;8.958;2023-05-23T04:49:09;11.07;;;10.07;;
17228;SDS011;8731;50.364;8.958;2023-05-23T04:53:33;11.13;;;10.13;;
17228;SDS011;8731;50.364;8.958;2023-05-23T04:58:00;12.03;;;10.00;;
17228;SDS011;8731;50.364;8.958;2023-05-23T05:02:24;11.03;;;9.10;;
17228;SDS011;8731;50.364;8.958;2023-05-23T05:06:54;8.70;;;7.57;;
17228;SDS011;8731;50.364;8.958;2023-05-23T05:11:17;7.73;;;6.93;;
17228;SDS011;8731;50.364;8.958;2023-05-23T05:15:41;8.57;;;6.20;;
17228;SDS011;8731;50.364;8.958;2023-05-23T05:20:06;7.33;;;5.93;;
17228;SDS011;8731;50.364;8.958;2023-05-23T05:24:31;6.47;;;5.13;;
17228;SDS011;8731;50.364;8.958;2023-05-23T05:28:54;5.53;;;4.30;;
17228;SDS011;8731;50.364;8.958;2023-05-23T05:33:18;6.03;;;4.73;;
17228;SDS011;8731;50.364;8.958;2023-05-23T05:37:44;6.17;;;4.40;;
17228;SDS011;8731;50.364;8.958;2023-05-23T05:42:07;3.93;;;3.40;;
17228;SDS011;8731;50.364;8.958;2023-05-23T05:46:30;3.80;;;3.23;;
17228;SDS011;8731;50.364;8.958;2023-05-23T05:50:55;3.83;;;3.20;;
17228;SDS011;8731;50.364;8.958;2023-05-23T05:55:21;4.27;;;3.70;;
17228;SDS011;8731;50.364;8.958;2023-05-23T05:59:47;4.10;;;2.90;;
17228;SDS011;8731;50.364;8.958;2023-05-23T06:04:11;3.73;;;2.83;;
17228;SDS011;8731;50.364;8.958;2023-05-23T06:08:34;2.70;;;2.50;;
17228;SDS011;8731;50.364;8.958;2023-05-23T06:12:58;3.43;;;3.13;;
17228;SDS011;8731;50.364;8.958;2023-05-23T06:17:21;4.40;;;3.30;;
17228;SDS011;8731;50.364;8.958;2023-05-23T06:21:44;3.87;;;3.10;;
17228;SDS011;8731;50.364;8.958;2023-05-23T06:26:07;3.67;;;2.73;;
17228;SDS011;8731;50.364;8.958;2023-05-23T06:30:31;3.27;;;2.97;;
17228;SDS011;8731;50.364;8.958;2023-05-23T06:34:55;3.50;;;3.20;;
17228;SDS011;8731;50.364;8.958;2023-05-23T06:39:19;5.33;;;2.83;;
17228;SDS011;8731;50.364;8.958;2023-05-23T06:43:44;6.87;;;2.73;;
17228;SDS011;8731;50.364;8.958;2023-05-23T06:48:10;4.13;;;2.73;;
17228;SDS011;8731;50.364;8.958;2023-05-23T06:52:33;2.77;;;2.13;;
17228;SDS011;8731;50.364;8.958;2023-05-23T06:56:56;2.80;;;2.60;;
17228;SDS011;8731;50.364;8.958;2023-05-23T07:01:19;3.83;;;2.90;;
17228;SDS011;8731;50.364;8.958;2023-05-23T07:05:45;4.27;;;2.90;;
17228;SDS011;8731;50.364;8.958;2023-05-23T07:10:10;3.20;;;2.90;;
17228;SDS011;8731;50.364;8.958;2023-05-23T07:14:34;2.97;;;2.77;;
17228;SDS011;8731;50.364;8.958;2023-05-23T07:18:59;3.83;;;3.07;;
17228;SDS011;8731;50.364;8.958;2023-05-23T07:23:27;4.67;;;3.30;;
17228;SDS011;8731;50.364;8.958;2023-05-23T07:27:55;3.67;;;3.17;;
17228;SDS011;8731;50.364;8.958;2023-05-23T07:32:18;3.37;;;3.07;;
17228;SDS011;8731;50.364;8.958;2023-05-23T07:36:42;4.67;;;3.03;;
17228;SDS011;8731;50.364;8.958;2023-05-23T07:41:08;3.10;;;2.83;;
17228;SDS011;8731;50.364;8.958;2023-05-23T07:45:31;3.93;;;3.23;;
17228;SDS011;8731;50.364;8.958;2023-05-23T07:49:54;3.57;;;3.10;;
17228;SDS011;8731;50.364;8.958;2023-05-23T07:54:16;3.07;;;2.77;;
17228;SDS011;8731;50.364;8.958;2023-05-23T07:58:41;3.17;;;2.87;;
17228;SDS011;8731;50.364;8.958;2023-05-23T08:03:04;2.70;;;2.50;;
17228;SDS011;8731;50.364;8.958;2023-05-23T08:07:41;3.00;;;2.80;;
17228;SDS011;8731;50.364;8.958;2023-05-23T08:12:07;2.83;;;2.63;;
17228;SDS011;8731;50.364;8.958;2023-05-23T08:16:34;2.60;;;2.40;;
17228;SDS011;8731;50.364;8.958;2023-05-23T08:20:59;4.70;;;2.70;;
17228;SDS011;8731;50.364;8.958;2023-05-23T08:25:23;5.57;;;3.13;;
17228;SDS011;8731;50.364;8.958;2023-05-23T08:29:49;2.87;;;2.67;;
17228;SDS011;8731;50.364;8.958;2023-05-23T08:34:15;3.47;;;2.73;;
17228;SDS011;8731;50.364;8.958;2023-05-23T08:38:37;2.90;;;2.70;;
17228;SDS011;8731;50.364;8.958;2023-05-23T08:43:06;4.07;;;2.90;;
17228;SDS011;8731;50.364;8.958;2023-05-23T08:47:31;2.80;;;2.60;;
17228;SDS011;8731;50.364;8.958;2023-05-23T08:52:01;3.40;;;2.63;;
17228;SDS011;8731;50.364;8.958;2023-05-23T08:56:27;3.27;;;2.63;;
17228;SDS011;8731;50.364;8.958;2023-05-23T09:00:51;2.40;;;2.20;;
17228;SDS011;8731;50.364;8.958;2023-05-23T09:05:16;2.20;;;2.00;;
17228;SDS011;8731;50.364;8.958;2023-05-23T09:09:41;3.10;;;2.10;;
17228;SDS011;8731;50.364;8.958;2023-05-23T09:14:07;3.40;;;2.30;;
17228;SDS011;8731;50.364;8.958;2023-05-23T09:18:32;3.50;;;2.50;;
17228;SDS011;8731;50.364;8.958;2023-05-23T09:22:58;3.40;;;2.57;;
17228;SDS011;8731;50.364;8.958;2023-05-23T09:27:23;4.47;;;2.83;;
17228;SDS011;8731;50.364;8.958;2023-05-23T09:31:46;4.90;;;2.50;;
17228;SDS011;8731;50.364;8.958;2023-05-23T09:36:08;5.30;;;2.50;;
17228;SDS011;8731;50.364;8.958;2023-05-23T09:40:31;2.83;;;2.60;;
17228;SDS011;8731;50.364;8.958;2023-05-23T09:44:58;5.13;;;2.60;;
17228;SDS011;8731;50.364;8.958;2023-05-23T09:49:23;2.80;;;2.60;;
17228;SDS011;8731;50.364;8.958;2023-05-23T09:53:47;2.63;;;2.43;;
17228;SDS011;8731;50.364;8.958;2023-05-23T09:58:12;3.30;;;2.57;;
17228;SDS011;8731;50.364;8.958;2023-05-23T10:02:49;2.70;;;2.50;;
17228;SDS011;8731;50.364;8.958;2023-05-23T10:07:19;4.20;;;2.60;;
17228;SDS011;8731;50.364;8.958;2023-05-23T10:12:10;3.77;;;3.47;;
17228;SDS011;8731;50.364;8.958;2023-05-23T10:17:03;4.20;;;3.03;;
17228;SDS011;8731;50.364;8.958;2023-05-23T10:21:38;3.90;;;2.70;;
17228;SDS011;8731;50.364;8.958;2023-05-23T10:26:07;2.50;;;2.30;;
17228;SDS011;8731;50.364;8.958;2023-05-23T10:30:31;2.07;;;1.93;;
17228;SDS011;8731;50.364;8.958;2023-05-23T10:34:56;5.33;;;1.80;;
17228;SDS011;8731;50.364;8.958;2023-05-23T10:39:33;2.20;;;2.00;;
17228;SDS011;8731;50.364;8.958;2023-05-23T10:44:11;2.40;;;2.00;;
17228;SDS011;8731;50.364;8.958;2023-05-23T10:48:40;2.33;;;2.00;;
17228;SDS011;8731;50.364;8.958;2023-05-23T10:53:04;3.93;;;2.10;;
17228;SDS011;8731;50.364;8.958;2023-05-23T10:57:29;2.20;;;2.00;;
17228;SDS011;8731;50.364;8.958;2023-05-23T11:01:51;2.77;;;1.80;;
17228;SDS011;8731;50.364;8.958;2023-05-23T11:06:27;2.80;;;1.60;;
17228;SDS011;8731;50.364;8.958;2023-05-23T11:10:53;3.93;;;1.60;;
17228;SDS011;8731;50.364;8.958;2023-05-23T11:15:20;1.70;;;1.60;;
17228;SDS011;8731;50.364;8.958;2023-05-23T11:19:54;1.63;;;1.53;;
17228;SDS011;8731;50.364;8.958;2023-05-23T11:24:20;1.40;;;1.30;;
17228;SDS011;8731;50.364;8.958;2023-05-23T11:28:54;1.60;;;1.50;;
17228;SDS011;8731;50.364;8.958;2023-05-23T11:33:18;2.13;;;1.17;;
17228;SDS011;8731;50.364;8.958;2023-05-23T11:37:41;1.50;;;1.40;;
17228;SDS011;8731;50.364;8.958;2023-05-23T11:42:05;1.50;;;1.40;;
17228;SDS011;8731;50.364;8.958;2023-05-23T11:46:27;1.30;;;1.20;;
17228;SDS011;8731;50.364;8.958;2023-05-23T11:50:52;1.80;;;1.60;;
17228;SDS011;8731;50.364;8.958;2023-05-23T11:55:15;1.50;;;1.40;;
17228;SDS011;8731;50.364;8.958;2023-05-23T11:59:38;1.20;;;1.10;;
17228;SDS011;8731;50.364;8.958;2023-05-23T12:04:07;1.10;;;1.10;;
17228;SDS011;8731;50.364;8.958;2023-05-23T12:08:33;1.20;;;1.00;;
17228;SDS011;8731;50.364;8.958;2023-05-23T12:12:55;1.50;;;1.20;;
17228;SDS011;8731;50.364;8.958;2023-05-23T12:17:18;1.40;;;1.30;;
17228;SDS011;8731;50.364;8.958;2023-05-23T12:21:41;1.13;;;1.03;;
17228;SDS011;8731;50.364;8.958;2023-05-23T12:26:07;1.17;;;0.90;;
17228;SDS011;8731;50.364;8.958;2023-05-23T12:30:39;1.10;;;0.90;;
17228;SDS011;8731;50.364;8.958;2023-05-23T12:35:03;2.33;;;0.90;;
17228;SDS011;8731;50.364;8.958;2023-05-23T12:39:26;2.23;;;1.10;;
17228;SDS011;8731;50.364;8.958;2023-05-23T12:43:53;2.23;;;1.30;;
17228;SDS011;8731;50.364;8.958;2023-05-23T12:48:17;2.70;;;1.10;;
17228;SDS011;8731;50.364;8.958;2023-05-23T12:52:40;3.77;;;1.07;;
17228;SDS011;8731;50.364;8.958;2023-05-23T12:57:02;0.97;;;0.83;;
17228;SDS011;8731;50.364;8.958;2023-05-23T13:01:26;1.40;;;1.30;;
17228;SDS011;8731;50.364;8.958;2023-05-23T13:05:49;2.37;;;1.10;;
17228;SDS011;8731;50.364;8.958;2023-05-23T13:10:12;1.73;;;1.30;;
17228;SDS011;8731;50.364;8.958;2023-05-23T13:14:35;1.53;;;1.17;;
17228;SDS011;8731;50.364;8.958;2023-05-23T13:18:59;2.37;;;1.00;;
17228;SDS011;8731;50.364;8.958;2023-05-23T13:23:22;1.23;;;1.13;;
17228;SDS011;8731;50.364;8.958;2023-05-23T13:27:45;1.50;;;1.40;;
17228;SDS011;8731;50.364;8.958;2023-05-23T13:32:08;2.20;;;1.63;;
17228;SDS011;8731;50.364;8.958;2023-05-23T13:36:31;3.03;;;1.60;;
17228;SDS011;8731;50.364;8.958;2023-05-23T13:40:55;1.37;;;1.27;;
17228;SDS011;8731;50.364;8.958;2023-05-23T13:45:17;2.20;;;1.60;;
17228;SDS011;8731;50.364;8.958;2023-05-23T13:49:41;2.43;;;2.00;;
17228;SDS011;8731;50.364;8.958;2023-05-23T13:54:06;2.33;;;1.90;;
17228;SDS011;8731;50.364;8.958;2023-05-23T13:58:28;2.60;;;1.90;;
17228;SDS011;8731;50.364;8.958;2023-05-23T14:02:51;2.07;;;1.87;;
17228;SDS011;8731;50.364;8.958;2023-05-23T14:07:13;2.30;;;2.10;;
17228;SDS011;8731;50.364;8.958;2023-05-23T14:11:39;3.30;;;2.27;;
17228;SDS011;8731;50.364;8.958;2023-05-23T14:16:01;4.73;;;2.80;;
17228;SDS011;8731;50.364;8.958;2023-05-23T14:20:24;2.53;;;1.77;;
17228;SDS011;8731;50.364;8.958;2023-05-23T14:24:48;3.97;;;2.20;;
17228;SDS011;8731;50.364;8.958;2023-05-23T14:29:12;3.30;;;2.20;;
17228;SDS011;8731;50.364;8.958;2023-05-23T14:33:35;2.20;;;1.90;;
17228;SDS011;8731;50.364;8.958;2023-05-23T14:37:57;3.43;;;2.10;;
17228;SDS011;8731;50.364;8.958;2023-05-23T14:42:20;4.53;;;2.90;;
17228;SDS011;8731;50.364;8.958;2023-05-23T14:46:44;2.77;;;1.90;;
17228;SDS011;8731;50.364;8.958;2023-05-23T14:51:08;2.07;;;1.97;;
17228;SDS011;8731;50.364;8.958;2023-05-23T14:55:30;4.93;;;2.10;;
17228;SDS011;8731;50.364;8.958;2023-05-23T14:59:53;2.53;;;2.10;;
17228;SDS011;8731;50.364;8.958;2023-05-23T15:04:16;2.10;;;1.90;;
17228;SDS011;8731;50.364;8.958;2023-05-23T15:08:39;3.53;;;2.10;;
17228;SDS011;8731;50.364;8.958;2023-05-23T15:13:02;1.97;;;1.80;;
17228;SDS011;8731;50.364;8.958;2023-05-23T15:17:26;3.80;;;2.20;;
17228;SDS011;8731;50.364;8.958;2023-05-23T15:21:50;2.40;;;2.20;;
17228;SDS011;8731;50.364;8.958;2023-05-23T15:26:13;3.50;;;2.00;;
17228;SDS011;8731;50.364;8.958;2023-05-23T15:30:36;4.50;;;2.60;;
17228;SDS011;8731;50.364;8.958;2023-05-23T15:35:00;2.47;;;2.30;;
17228;SDS011;8731;50.364;8.958;2023-05-23T15:39:25;2.80;;;2.50;;
17228;SDS011;8731;50.364;8.958;2023-05-23T15:43:47;2.70;;;2.50;;
17228;SDS011;8731;50.364;8.958;2023-05-23T15:48:10;3.63;;;2.83;;
17228;SDS011;8731;50.364;8.958;2023-05-23T15:52:32;4.60;;;2.90;;
17228;SDS011;8731;50.364;8.958;2023-05-23T15:56:56;6.73;;;3.17;;
17228;SDS011;8731;50.364;8.958;2023-05-23T16:01:18;2.57;;;2.37;;
17228;SDS011;8731;50.364;8.958;2023-05-23T16:05:40;3.27;;;2.60;;
17228;SDS011;8731;50.364;8.958;2023-05-23T16:10:05;3.60;;;2.53;;
17228;SDS011;8731;50.364;8.958;2023-05-23T16:14:30;3.93;;;2.43;;
17228;SDS011;8731;50.364;8.958;2023-05-23T16:18:52;3.93;;;2.70;;
17228;SDS011;8731;50.364;8.958;2023-05-23T16:23:15;3.00;;;2.60;;
17228;SDS011;8731;50.364;8.958;2023-05-23T16:27:37;2.97;;;2.37;;
17228;SDS011;8731;50.364;8.958;2023-05-23T16:32:01;2.70;;;2.50;;
17228;SDS011;8731;50.364;8.958;2023-05-23T16:36:24;5.43;;;2.57;;
17228;SDS011;8731;50.364;8.958;2023-05-23T16:40:48;4.27;;;2.60;;
17228;SDS011;8731;50.364;8.958;2023-05-23T16:45:11;5.43;;;2.83;;
17228;SDS011;8731;50.364;8.958;2023-05-23T16:49:35;4.77;;;2.97;;
17228;SDS011;8731;50.364;8.958;2023-05-23T16:53:58;4.00;;;2.90;;
17228;SDS011;8731;50.364;8.958;2023-05-23T16:58:20;6.27;;;2.93;;
17228;SDS011;8731;50.364;8.958;2023-05-23T17:02:43;5.70;;;2.83;;
17228;SDS011;8731;50.364;8.958;2023-05-23T17:07:07;5.70;;;3.23;;
17228;SDS011;8731;50.364;8.958;2023-05-23T17:11:29;8.40;;;3.20;;
17228;SDS011;8731;50.364;8.958;2023-05-23T17:15:51;7.70;;;3.10;;
17228;SDS011;8731;50.364;8.958;2023-05-23T17:20:14;6.60;;;2.87;;
17228;SDS011;8731;50.364;8.958;2023-05-23T17:24:38;7.67;;;3.07;;
17228;SDS011;8731;50.364;8.958;2023-05-23T17:29:00;7.20;;;3.70;;
17228;SDS011;8731;50.364;8.958;2023-05-23T17:33:23;8.63;;;3.50;;
17228;SDS011;8731;50.364;8.958;2023-05-23T17:37:45;5.27;;;3.33;;
17228;SDS011;8731;50.364;8.958;2023-05-23T17:42:12;5.03;;;3.13;;
17228;SDS011;8731;50.364;8.958;2023-05-23T17:46:35;6.73;;;2.83;;
17228;SDS011;8731;50.364;8.958;2023-05-23T17:50:59;5.23;;;2.70;;
17228;SDS011;8731;50.364;8.958;2023-05-23T17:55:21;8.17;;;3.37;;
17228;SDS011;8731;50.364;8.958;2023-05-23T17:59:45;8.10;;;3.00;;
17228;SDS011;8731;50.364;8.958;2023-05-23T18:04:07;6.10;;;2.87;;
17228;SDS011;8731;50.364;8.958;2023-05-23T18:08:29;7.97;;;2.67;;
17228;SDS011;8731;50.364;8.958;2023-05-23T18:12:53;7.07;;;3.13;;
17228;SDS011;8731;50.364;8.958;2023-05-23T18:17:18;7.33;;;3.03;;
17228;SDS011;8731;50.364;8.958;2023-05-23T18:21:41;6.33;;;2.90;;
17228;SDS011;8731;50.364;8.958;2023-05-23T18:26:04;6.43;;;2.43;;
17228;SDS011;8731;50.364;8.958;2023-05-23T18:30:28;5.70;;;2.80;;
17228;SDS011;8731;50.364;8.958;2023-05-23T18:34:53;8.10;;;3.90;;
17228;SDS011;8731;50.364;8.958;2023-05-23T18:39:16;7.57;;;4.20;;
17228;SDS011;8731;50.364;8.958;2023-05-23T18:43:39;9.40;;;3.30;;
17228;SDS011;8731;50.364;8.958;2023-05-23T18:48:02;9.10;;;3.73;;
17228;SDS011;8731;50.364;8.958;2023-05-23T18:52:26;8.13;;;3.63;;
17228;SDS011;8731;50.364;8.958;2023-05-23T18:56:49;6.67;;;3.23;;
17228;SDS011;8731;50.364;8.958;2023-05-23T19:01:12;5.63;;;3.00;;
17228;SDS011;8731;50.364;8.958;2023-05-23T19:05:34;8.17;;;3.00;;
17228;SDS011;8731;50.364;8.958;2023-05-23T19:09:58;9.07;;;3.83;;
17228;SDS011;8731;50.364;8.958;2023-05-23T19:14:21;7.40;;;3.63;;
17228;SDS011;8731;50.364;8.958;2023-05-23T19:18:44;7.00;;;3.03;;
17228;SDS011;8731;50.364;8.958;2023-05-23T19:23:06;9.00;;;2.77;;
17228;SDS011;8731;50.364;8.958;2023-05-23T19:27:30;7.00;;;2.80;;
17228;SDS011;8731;50.364;8.958;2023-05-23T19:31:52;7.63;;;3.10;;
17228;SDS011;8731;50.364;8.958;2023-05-23T19:36:15;6.47;;;2.77;;
17228;SDS011;8731;50.364;8.958;2023-05-23T19:40:37;8.40;;;3.27;;
17228;SDS011;8731;50.364;8.958;2023-05-23T19:45:02;9.17;;;3.30;;
17228;SDS011;8731;50.364;8.958;2023-05-23T19:49:25;9.50;;;2.97;;
17228;SDS011;8731;50.364;8.958;2023-05-23T19:53:48;10.03;;;3.00;;
17228;SDS011;8731;50.364;8.958;2023-05-23T19:58:11;8.53;;;3.03;;
17228;SDS011;8731;50.364;8.958;2023-05-23T20:02:35;8.47;;;3.30;;
17228;SDS011;8731;50.364;8.958;2023-05-23T20:06:58;10.53;;;3.23;;
17228;SDS011;8731;50.364;8.958;2023-05-23T20:11:20;9.63;;;3.37;;
17228;SDS011;8731;50.364;8.958;2023-05-23T20:15:42;10.73;;;3.17;;
17228;SDS011;8731;50.364;8.958;2023-05-23T20:20:08;11.63;;;3.20;;
17228;SDS011;8731;50.364;8.958;2023-05-23T20:24:31;8.53;;;2.77;;
17228;SDS011;8731;50.364;8.958;2023-05-23T20:28:53;7.17;;;2.63;;
17228;SDS011;8731;50.364;8.958;2023-05-23T20:33:16;9.60;;;3.60;;
17228;SDS011;8731;50.364;8.958;2023-05-23T20:37:42;9.00;;;3.37;;
17228;SDS011;8731;50.364;8.958;2023-05-23T20:42:04;12.43;;;3.50;;
17228;SDS011;8731;50.364;8.958;2023-05-23T20:46:29;8.73;;;3.13;;
17228;SDS011;8731;50.364;8.958;2023-05-23T20:50:55;10.30;;;3.20;;
17228;SDS011;8731;50.364;8.958;2023-05-23T20:55:20;10.83;;;3.40;;
17228;SDS011;8731;50.364;8.958;2023-05-23T20:59:42;12.43;;;3.20;;
17228;SDS011;8731;50.364;8.958;2023-05-23T21:04:05;12.50;;;3.37;;
17228;SDS011;8731;50.364;8.958;2023-05-23T21:08:27;11.10;;;3.30;;
17228;SDS011;8731;50.364;8.958;2023-05-23T21:12:52;9.90;;;3.07;;
17228;SDS011;8731;50.364;8.958;2023-05-23T21:17:15;12.47;;;3.33;;
17228;SDS011;8731;50.364;8.958;2023-05-23T21:21:38;11.33;;;3.47;;
17228;SDS011;8731;50.364;8.958;2023-05-23T21:26:01;9.87;;;3.03;;
17228;SDS011;8731;50.364;8.958;2023-05-23T21:30:24;9.60;;;2.90;;
17228;SDS011;8731;50.364;8.958;2023-05-23T21:34:47;7.20;;;2.80;;
17228;SDS011;8731;50.364;8.958;2023-05-23T21:39:10;10.87;;;2.93;;
17228;SDS011;8731;50.364;8.958;2023-05-23T21:43:32;9.87;;;3.23;;
17228;SDS011;8731;50.364;8.958;2023-05-23T21:47:57;10.13;;;3.13;;
17228;SDS011;8731;50.364;8.958;2023-05-23T21:52:19;8.10;;;3.13;;
17228;SDS011;8731;50.364;8.958;2023-05-23T21:56:42;11.00;;;3.53;;
17228;SDS011;8731;50.364;8.958;2023-05-23T22:01:05;13.03;;;3.50;;
17228;SDS011;8731;50.364;8.958;2023-05-23T22:05:29;9.97;;;2.87;;
17228;SDS011;8731;50.364;8.958;2023-05-23T22:09:51;8.17;;;2.80;;
17228;SDS011;8731;50.364;8.958;2023-05-23T22:14:15;10.97;;;3.17;;
17228;SDS011;8731;50.364;8.958;2023-05-23T22:18:37;8.00;;;2.87;;
17228;SDS011;8731;50.364;8.958;2023-05-23T22:23:03;9.30;;;2.77;;
17228;SDS011;8731;50.364;8.958;2023-05-23T22:27:26;11.53;;;2.70;;
17228;SDS011;8731;50.364;8.958;2023-05-23T22:31:48;8.77;;;3.00;;
17228;SDS011;8731;50.364;8.958;2023-05-23T22:36:11;9.23;;;3.13;;
17228;SDS011;8731;50.364;8.958;2023-05-23T22:40:36;7.80;;;2.97;;
17228;SDS011;8731;50.364;8.958;2023-05-23T22:44:58;9.70;;;3.10;;
17228;SDS011;8731;50.364;8.958;2023-05-23T22:49:21;10.40;;;3.10;;
17228;SDS011;8731;50.364;8.958;2023-05-23T22:53:44;9.90;;;3.17;;
17228;SDS011;8731;50.364;8.958;2023-05-23T22:58:08;9.50;;;2.97;;
17228;SDS011;8731;50.364;8.958;2023-05-23T23:02:32;9.13;;;2.77;;
17228;SDS011;8731;50.364;8.958;2023-05-23T23:06:55;6.47;;;2.17;;
17228;SDS011;8731;50.364;8.958;2023-05-23T23:11:18;10.40;;;2.67;;
17228;SDS011;8731;50.364;8.958;2023-05-23T23:15:42;8.80;;;2.63;;
17228;SDS011;8731;50.364;8.958;2023-05-23T23:20:08;11.50;;;3.50;;
17228;SDS011;8731;50.364;8.958;2023-05-23T23:24:32;9.90;;;2.93;;
17228;SDS011;8731;50.364;8.958;2023-05-23T23:28:54;10.83;;;3.20;;
17228;SDS011;8731;50.364;8.958;2023-05-23T23:33:18;10.50;;;3.60;;
17228;SDS011;8731;50.364;8.958;2023-05-23T23:37:41;7.33;;;2.67;;
17228;SDS011;8731;50.364;8.958;2023-05-23T23:42:03;7.47;;;2.60;;
17228;SDS011;8731;50.364;8.958;2023-05-23T23:46:26;5.60;;;2.43;;
17228;SDS011;8731;50.364;8.958;2023-05-23T23:50:50;5.60;;;2.37;;
17228;SDS011;8731;50.364;8.958;2023-05-23T23:55:14;9.87;;;2.70;;
17228;SDS011;8731;50.364;8.958;2023-05-23T23:59:36;6.63;;;2.43;;
